North Wales, Pennsylvania
Current Conditions -  °F | °C
As of 6:55 AM on Monday 24 Nov 2014 (Local Time) from KLOM Reporting Station
Overcast Overcast  
Wind Chill: 63°   Ceiling: 900
Heat Index: 63°   Visibility: 10mi
Dew Point: 61°   Wind: 8mph
Humidity: 94%   Direction: 210°SSW
Pressure: 29.67"   Gusts: NA
Location:  40.21°N, 75.28°W
Report Text: KLOM 241155Z AUTO 21007KT 10SM OVC009 17/16 A2967 RMK AO1
Loading
Personal Weather Stations






























Interactive Weather Map New forecast layout! Learn more

10-Day Weather Forecast

Advertisements
Track Severe Weather on mobile